sensor_id;sensor_type;location;lat;lon;timestamp;temperature;humidity
15259;DHT22;34462;51.368;12.364;2023-09-18T00:01:23;19.30;99.90
15259;DHT22;34462;51.368;12.364;2023-09-18T00:03:51;19.30;99.90
15259;DHT22;34462;51.368;12.364;2023-09-18T00:06:21;19.30;99.90
15259;DHT22;34462;51.368;12.364;2023-09-18T00:08:50;19.20;99.90
15259;DHT22;34462;51.368;12.364;2023-09-18T00:11:19;19.20;99.90
15259;DHT22;34462;51.368;12.364;2023-09-18T00:13:47;19.20;99.90
15259;DHT22;34462;51.368;12.364;2023-09-18T00:16:16;19.10;99.90
15259;DHT22;34462;51.368;12.364;2023-09-18T00:18:44;19.10;99.90
15259;DHT22;34462;51.368;12.364;2023-09-18T00:21:12;19.10;99.90
15259;DHT22;34462;51.368;12.364;2023-09-18T00:23:42;19.10;99.90
15259;DHT22;34462;51.368;12.364;2023-09-18T00:26:10;19.00;99.90
15259;DHT22;34462;51.368;12.364;2023-09-18T00:28:38;19.00;99.90
15259;DHT22;34462;51.368;12.364;2023-09-18T00:31:07;19.00;99.90
15259;DHT22;34462;51.368;12.364;2023-09-18T00:33:35;19.00;99.90
15259;DHT22;34462;51.368;12.364;2023-09-18T00:36:04;18.90;99.90
15259;DHT22;34462;51.368;12.364;2023-09-18T00:38:32;18.90;99.90
15259;DHT22;34462;51.368;12.364;2023-09-18T00:41:02;18.90;99.90
15259;DHT22;34462;51.368;12.364;2023-09-18T00:43:31;18.90;99.90
15259;DHT22;34462;51.368;12.364;2023-09-18T00:45:59;18.80;99.90
15259;DHT22;34462;51.368;12.364;2023-09-18T00:48:28;18.80;99.90
15259;DHT22;34462;51.368;12.364;2023-09-18T00:50:56;18.80;99.90
15259;DHT22;34462;51.368;12.364;2023-09-18T00:53:25;18.80;99.90
15259;DHT22;34462;51.368;12.364;2023-09-18T00:55:56;18.70;99.90
15259;DHT22;34462;51.368;12.364;2023-09-18T00:58:28;18.70;99.90
15259;DHT22;34462;51.368;12.364;2023-09-18T01:00:57;18.70;99.90
15259;DHT22;34462;51.368;12.364;2023-09-18T01:03:26;18.70;99.90
15259;DHT22;34462;51.368;12.364;2023-09-18T01:05:55;18.70;99.90
15259;DHT22;34462;51.368;12.364;2023-09-18T01:08:23;18.70;99.90
15259;DHT22;34462;51.368;12.364;2023-09-18T01:10:58;18.70;99.90
15259;DHT22;34462;51.368;12.364;2023-09-18T01:13:37;18.60;99.90
15259;DHT22;34462;51.368;12.364;2023-09-18T01:16:20;18.60;99.90
15259;DHT22;34462;51.368;12.364;2023-09-18T01:18:53;18.50;99.90
15259;DHT22;34462;51.368;12.364;2023-09-18T01:21:21;18.50;99.90
15259;DHT22;34462;51.368;12.364;2023-09-18T01:23:51;18.50;99.90
15259;DHT22;34462;51.368;12.364;2023-09-18T01:26:19;18.50;99.90
15259;DHT22;34462;51.368;12.364;2023-09-18T01:28:47;18.50;99.90
15259;DHT22;34462;51.368;12.364;2023-09-18T01:31:16;18.50;99.90
15259;DHT22;34462;51.368;12.364;2023-09-18T01:33:45;18.50;99.90
15259;DHT22;34462;51.368;12.364;2023-09-18T01:36:17;18.40;99.90
15259;DHT22;34462;51.368;12.364;2023-09-18T01:38:48;18.40;99.90
15259;DHT22;34462;51.368;12.364;2023-09-18T01:41:21;18.40;99.90
15259;DHT22;34462;51.368;12.364;2023-09-18T01:43:50;18.40;99.90
15259;DHT22;34462;51.368;12.364;2023-09-18T01:46:18;18.40;99.90
15259;DHT22;34462;51.368;12.364;2023-09-18T01:48:47;18.40;99.90
15259;DHT22;34462;51.368;12.364;2023-09-18T01:51:15;18.40;99.90
15259;DHT22;34462;51.368;12.364;2023-09-18T01:53:44;18.40;99.90
15259;DHT22;34462;51.368;12.364;2023-09-18T01:56:13;18.30;99.90
15259;DHT22;34462;51.368;12.364;2023-09-18T01:58:41;18.30;99.90
15259;DHT22;34462;51.368;12.364;2023-09-18T02:01:10;18.30;99.90
15259;DHT22;34462;51.368;12.364;2023-09-18T02:03:39;18.30;99.90
15259;DHT22;34462;51.368;12.364;2023-09-18T02:06:28;18.40;99.90
15259;DHT22;34462;51.368;12.364;2023-09-18T02:08:57;18.20;99.90
15259;DHT22;34462;51.368;12.364;2023-09-18T02:11:27;18.20;99.90
15259;DHT22;34462;51.368;12.364;2023-09-18T02:13:55;18.10;99.90
15259;DHT22;34462;51.368;12.364;2023-09-18T02:16:23;18.10;99.90
15259;DHT22;34462;51.368;12.364;2023-09-18T02:18:54;18.10;99.90
15259;DHT22;34462;51.368;12.364;2023-09-18T02:21:23;18.10;99.90
15259;DHT22;34462;51.368;12.364;2023-09-18T02:23:52;18.10;99.90
15259;DHT22;34462;51.368;12.364;2023-09-18T02:26:22;18.00;99.90
15259;DHT22;34462;51.368;12.364;2023-09-18T02:28:53;18.00;99.90
15259;DHT22;34462;51.368;12.364;2023-09-18T02:31:22;18.00;99.90
15259;DHT22;34462;51.368;12.364;2023-09-18T02:33:50;18.00;99.90
15259;DHT22;34462;51.368;12.364;2023-09-18T02:36:19;17.90;99.90
15259;DHT22;34462;51.368;12.364;2023-09-18T02:38:47;18.00;99.90
15259;DHT22;34462;51.368;12.364;2023-09-18T02:41:15;18.00;99.90
15259;DHT22;34462;51.368;12.364;2023-09-18T02:43:44;18.00;99.90
15259;DHT22;34462;51.368;12.364;2023-09-18T02:46:13;18.00;99.90
15259;DHT22;34462;51.368;12.364;2023-09-18T02:48:41;18.00;99.90
15259;DHT22;34462;51.368;12.364;2023-09-18T02:51:11;18.00;99.90
15259;DHT22;34462;51.368;12.364;2023-09-18T02:53:39;18.00;99.90
15259;DHT22;34462;51.368;12.364;2023-09-18T02:56:08;18.00;99.90
15259;DHT22;34462;51.368;12.364;2023-09-18T02:58:37;18.00;99.90
15259;DHT22;34462;51.368;12.364;2023-09-18T03:01:07;18.00;99.90
15259;DHT22;34462;51.368;12.364;2023-09-18T03:03:37;17.90;99.90
15259;DHT22;34462;51.368;12.364;2023-09-18T03:06:05;17.90;99.90
15259;DHT22;34462;51.368;12.364;2023-09-18T03:08:33;17.90;99.90
15259;DHT22;34462;51.368;12.364;2023-09-18T03:11:03;17.80;99.90
15259;DHT22;34462;51.368;12.364;2023-09-18T03:13:31;17.80;99.90
15259;DHT22;34462;51.368;12.364;2023-09-18T03:15:59;17.80;99.90
15259;DHT22;34462;51.368;12.364;2023-09-18T03:18:28;17.70;99.90
15259;DHT22;34462;51.368;12.364;2023-09-18T03:20:57;17.70;99.90
15259;DHT22;34462;51.368;12.364;2023-09-18T03:23:25;17.70;99.90
15259;DHT22;34462;51.368;12.364;2023-09-18T03:25:54;17.60;99.90
15259;DHT22;34462;51.368;12.364;2023-09-18T03:28:22;17.60;99.90
15259;DHT22;34462;51.368;12.364;2023-09-18T03:30:50;17.60;99.90
15259;DHT22;34462;51.368;12.364;2023-09-18T03:33:18;17.60;99.90
15259;DHT22;34462;51.368;12.364;2023-09-18T03:35:47;17.60;99.90
15259;DHT22;34462;51.368;12.364;2023-09-18T03:38:18;17.60;99.90
15259;DHT22;34462;51.368;12.364;2023-09-18T03:40:47;17.50;99.90
15259;DHT22;34462;51.368;12.364;2023-09-18T03:43:16;17.60;99.90
15259;DHT22;34462;51.368;12.364;2023-09-18T03:45:44;17.50;99.90
15259;DHT22;34462;51.368;12.364;2023-09-18T03:48:12;17.50;99.90
15259;DHT22;34462;51.368;12.364;2023-09-18T03:50:41;17.50;99.90
15259;DHT22;34462;51.368;12.364;2023-09-18T03:53:10;17.60;99.90
15259;DHT22;34462;51.368;12.364;2023-09-18T03:55:39;17.50;99.90
15259;DHT22;34462;51.368;12.364;2023-09-18T03:58:08;17.40;99.90
15259;DHT22;34462;51.368;12.364;2023-09-18T04:00:37;17.40;99.90
15259;DHT22;34462;51.368;12.364;2023-09-18T04:03:05;17.40;99.90
15259;DHT22;34462;51.368;12.364;2023-09-18T04:05:33;17.50;99.90
15259;DHT22;34462;51.368;12.364;2023-09-18T04:08:02;17.40;99.90
15259;DHT22;34462;51.368;12.364;2023-09-18T04:10:30;17.50;99.90
15259;DHT22;34462;51.368;12.364;2023-09-18T04:13:01;17.40;99.90
15259;DHT22;34462;51.368;12.364;2023-09-18T04:15:29;17.30;99.90
15259;DHT22;34462;51.368;12.364;2023-09-18T04:17:58;17.30;99.90
15259;DHT22;34462;51.368;12.364;2023-09-18T04:20:26;17.30;99.90
15259;DHT22;34462;51.368;12.364;2023-09-18T04:23:20;17.30;99.90
15259;DHT22;34462;51.368;12.364;2023-09-18T04:25:51;17.20;99.90
15259;DHT22;34462;51.368;12.364;2023-09-18T04:28:22;17.20;99.90
15259;DHT22;34462;51.368;12.364;2023-09-18T04:30:50;17.20;99.90
15259;DHT22;34462;51.368;12.364;2023-09-18T04:33:19;17.10;99.90
15259;DHT22;34462;51.368;12.364;2023-09-18T04:35:49;17.10;99.90
15259;DHT22;34462;51.368;12.364;2023-09-18T04:38:17;17.10;99.90
15259;DHT22;34462;51.368;12.364;2023-09-18T04:40:46;17.10;99.90
15259;DHT22;34462;51.368;12.364;2023-09-18T04:43:15;17.10;99.90
15259;DHT22;34462;51.368;12.364;2023-09-18T04:45:45;17.10;99.90
15259;DHT22;34462;51.368;12.364;2023-09-18T04:48:13;17.10;99.90
15259;DHT22;34462;51.368;12.364;2023-09-18T04:50:41;17.10;99.90
15259;DHT22;34462;51.368;12.364;2023-09-18T04:53:09;17.10;99.90
15259;DHT22;34462;51.368;12.364;2023-09-18T04:55:37;17.10;99.90
15259;DHT22;34462;51.368;12.364;2023-09-18T04:58:06;17.20;99.90
15259;DHT22;34462;51.368;12.364;2023-09-18T05:00:34;17.20;99.90
15259;DHT22;34462;51.368;12.364;2023-09-18T05:03:04;17.20;99.90
15259;DHT22;34462;51.368;12.364;2023-09-18T05:05:33;17.10;99.90
15259;DHT22;34462;51.368;12.364;2023-09-18T05:08:02;17.10;99.90
15259;DHT22;34462;51.368;12.364;2023-09-18T05:10:31;17.20;99.90
15259;DHT22;34462;51.368;12.364;2023-09-18T05:12:59;17.20;99.90
15259;DHT22;34462;51.368;12.364;2023-09-18T05:15:30;17.20;99.90
15259;DHT22;34462;51.368;12.364;2023-09-18T05:17:59;17.20;99.90
15259;DHT22;34462;51.368;12.364;2023-09-18T05:20:30;17.20;99.90
15259;DHT22;34462;51.368;12.364;2023-09-18T05:22:59;17.20;99.90
15259;DHT22;34462;51.368;12.364;2023-09-18T05:25:29;17.30;99.90
15259;DHT22;34462;51.368;12.364;2023-09-18T05:28:00;17.30;99.90
15259;DHT22;34462;51.368;12.364;2023-09-18T05:30:32;17.40;99.90
15259;DHT22;34462;51.368;12.364;2023-09-18T05:33:03;17.40;99.90
15259;DHT22;34462;51.368;12.364;2023-09-18T05:35:35;17.50;99.90
15259;DHT22;34462;51.368;12.364;2023-09-18T05:38:04;17.60;99.90
15259;DHT22;34462;51.368;12.364;2023-09-18T05:40:32;17.60;99.90
15259;DHT22;34462;51.368;12.364;2023-09-18T05:43:01;17.60;99.90
15259;DHT22;34462;51.368;12.364;2023-09-18T05:45:29;17.60;99.90
15259;DHT22;34462;51.368;12.364;2023-09-18T05:47:58;17.60;99.90
15259;DHT22;34462;51.368;12.364;2023-09-18T05:50:31;17.70;99.90
15259;DHT22;34462;51.368;12.364;2023-09-18T05:53:03;17.80;99.90
15259;DHT22;34462;51.368;12.364;2023-09-18T05:55:32;17.80;99.90
15259;DHT22;34462;51.368;12.364;2023-09-18T05:58:02;17.90;99.90
15259;DHT22;34462;51.368;12.364;2023-09-18T06:00:31;18.00;99.90
15259;DHT22;34462;51.368;12.364;2023-09-18T06:03:00;18.00;99.90
15259;DHT22;34462;51.368;12.364;2023-09-18T06:05:29;18.10;99.90
15259;DHT22;34462;51.368;12.364;2023-09-18T06:08:00;18.10;99.90
15259;DHT22;34462;51.368;12.364;2023-09-18T06:10:28;18.20;99.90
15259;DHT22;34462;51.368;12.364;2023-09-18T06:12:56;18.20;99.90
15259;DHT22;34462;51.368;12.364;2023-09-18T06:15:30;18.30;99.90
15259;DHT22;34462;51.368;12.364;2023-09-18T06:17:58;18.30;99.90
15259;DHT22;34462;51.368;12.364;2023-09-18T06:20:27;18.30;99.90
15259;DHT22;34462;51.368;12.364;2023-09-18T06:22:55;18.40;99.90
15259;DHT22;34462;51.368;12.364;2023-09-18T06:25:24;18.40;99.90
15259;DHT22;34462;51.368;12.364;2023-09-18T06:27:53;18.40;99.90
15259;DHT22;34462;51.368;12.364;2023-09-18T06:30:21;18.50;99.90
15259;DHT22;34462;51.368;12.364;2023-09-18T06:32:49;18.60;99.90
15259;DHT22;34462;51.368;12.364;2023-09-18T06:35:20;18.60;99.90
15259;DHT22;34462;51.368;12.364;2023-09-18T06:37:48;18.80;99.90
15259;DHT22;34462;51.368;12.364;2023-09-18T06:40:16;18.80;99.90
15259;DHT22;34462;51.368;12.364;2023-09-18T06:42:46;18.90;99.90
15259;DHT22;34462;51.368;12.364;2023-09-18T06:45:14;19.10;99.90
15259;DHT22;34462;51.368;12.364;2023-09-18T06:47:42;19.20;99.90
15259;DHT22;34462;51.368;12.364;2023-09-18T06:50:10;19.30;99.90
15259;DHT22;34462;51.368;12.364;2023-09-18T06:52:39;19.50;99.90
15259;DHT22;34462;51.368;12.364;2023-09-18T06:55:08;19.60;99.90
15259;DHT22;34462;51.368;12.364;2023-09-18T06:57:37;19.80;99.90
15259;DHT22;34462;51.368;12.364;2023-09-18T07:00:08;20.00;99.90
15259;DHT22;34462;51.368;12.364;2023-09-18T07:02:37;20.20;99.90
15259;DHT22;34462;51.368;12.364;2023-09-18T07:05:06;20.40;99.90
15259;DHT22;34462;51.368;12.364;2023-09-18T07:07:34;20.90;99.90
15259;DHT22;34462;51.368;12.364;2023-09-18T07:10:03;21.10;99.90
15259;DHT22;34462;51.368;12.364;2023-09-18T07:12:32;21.40;99.90
15259;DHT22;34462;51.368;12.364;2023-09-18T07:15:01;21.70;99.90
15259;DHT22;34462;51.368;12.364;2023-09-18T07:17:33;21.90;99.90
15259;DHT22;34462;51.368;12.364;2023-09-18T07:20:03;22.10;99.90
15259;DHT22;34462;51.368;12.364;2023-09-18T07:22:45;22.20;99.90
15259;DHT22;34462;51.368;12.364;2023-09-18T07:25:14;22.30;99.90
15259;DHT22;34462;51.368;12.364;2023-09-18T07:27:42;22.30;99.90
15259;DHT22;34462;51.368;12.364;2023-09-18T07:30:12;22.40;99.90
15259;DHT22;34462;51.368;12.364;2023-09-18T07:32:44;22.40;99.90
15259;DHT22;34462;51.368;12.364;2023-09-18T07:35:13;22.50;99.90
15259;DHT22;34462;51.368;12.364;2023-09-18T07:37:43;22.50;99.90
15259;DHT22;34462;51.368;12.364;2023-09-18T07:40:13;22.70;99.90
15259;DHT22;34462;51.368;12.364;2023-09-18T07:42:42;22.90;99.90
15259;DHT22;34462;51.368;12.364;2023-09-18T07:45:11;23.10;99.90
15259;DHT22;34462;51.368;12.364;2023-09-18T07:47:40;23.20;99.90
15259;DHT22;34462;51.368;12.364;2023-09-18T07:50:10;23.30;99.90
15259;DHT22;34462;51.368;12.364;2023-09-18T07:52:38;23.30;99.90
15259;DHT22;34462;51.368;12.364;2023-09-18T07:55:07;23.30;99.90
15259;DHT22;34462;51.368;12.364;2023-09-18T07:57:36;23.40;99.90
15259;DHT22;34462;51.368;12.364;2023-09-18T08:00:06;23.40;99.90
15259;DHT22;34462;51.368;12.364;2023-09-18T08:02:39;23.30;99.90
15259;DHT22;34462;51.368;12.364;2023-09-18T08:05:11;23.40;99.90
15259;DHT22;34462;51.368;12.364;2023-09-18T08:07:39;23.50;99.90
15259;DHT22;34462;51.368;12.364;2023-09-18T08:10:08;23.30;99.90
15259;DHT22;34462;51.368;12.364;2023-09-18T08:12:37;23.30;99.90
15259;DHT22;34462;51.368;12.364;2023-09-18T08:15:06;23.40;99.90
15259;DHT22;34462;51.368;12.364;2023-09-18T08:17:35;23.40;99.90
15259;DHT22;34462;51.368;12.364;2023-09-18T08:20:05;23.50;99.90
15259;DHT22;34462;51.368;12.364;2023-09-18T08:22:41;23.50;99.90
15259;DHT22;34462;51.368;12.364;2023-09-18T08:25:10;23.70;99.90
15259;DHT22;34462;51.368;12.364;2023-09-18T08:27:39;23.70;99.90
15259;DHT22;34462;51.368;12.364;2023-09-18T08:30:11;23.70;99.90
15259;DHT22;34462;51.368;12.364;2023-09-18T08:32:41;23.80;99.90
15259;DHT22;34462;51.368;12.364;2023-09-18T08:35:10;23.80;99.90
15259;DHT22;34462;51.368;12.364;2023-09-18T08:37:41;23.70;99.90
15259;DHT22;34462;51.368;12.364;2023-09-18T08:40:11;23.70;99.90
15259;DHT22;34462;51.368;12.364;2023-09-18T08:42:45;23.80;99.90
15259;DHT22;34462;51.368;12.364;2023-09-18T08:45:22;23.70;99.90
15259;DHT22;34462;51.368;12.364;2023-09-18T08:47:54;23.80;99.90
15259;DHT22;34462;51.368;12.364;2023-09-18T08:50:23;23.70;99.90
15259;DHT22;34462;51.368;12.364;2023-09-18T08:52:54;23.70;99.90
15259;DHT22;34462;51.368;12.364;2023-09-18T08:55:24;23.90;99.90
15259;DHT22;34462;51.368;12.364;2023-09-18T08:57:53;24.10;99.90
15259;DHT22;34462;51.368;12.364;2023-09-18T09:00:23;24.40;99.90
15259;DHT22;34462;51.368;12.364;2023-09-18T09:02:51;24.60;99.90
15259;DHT22;34462;51.368;12.364;2023-09-18T09:05:21;24.90;99.90
15259;DHT22;34462;51.368;12.364;2023-09-18T09:07:50;25.00;99.90
15259;DHT22;34462;51.368;12.364;2023-09-18T09:10:20;25.10;99.90
15259;DHT22;34462;51.368;12.364;2023-09-18T09:12:51;25.10;99.90
15259;DHT22;34462;51.368;12.364;2023-09-18T09:15:22;24.90;99.90
15259;DHT22;34462;51.368;12.364;2023-09-18T09:18:02;24.90;99.90
15259;DHT22;34462;51.368;12.364;2023-09-18T09:20:33;24.90;99.90
15259;DHT22;34462;51.368;12.364;2023-09-18T09:23:03;24.70;99.90
15259;DHT22;34462;51.368;12.364;2023-09-18T09:25:34;24.60;99.90
15259;DHT22;34462;51.368;12.364;2023-09-18T09:28:05;24.30;99.90
15259;DHT22;34462;51.368;12.364;2023-09-18T09:30:35;24.10;99.90
15259;DHT22;34462;51.368;12.364;2023-09-18T09:33:05;24.00;99.90
15259;DHT22;34462;51.368;12.364;2023-09-18T09:35:36;23.70;99.90
15259;DHT22;34462;51.368;12.364;2023-09-18T09:38:08;23.80;99.90
15259;DHT22;34462;51.368;12.364;2023-09-18T09:40:41;23.70;99.90
15259;DHT22;34462;51.368;12.364;2023-09-18T09:43:13;23.60;99.90
15259;DHT22;34462;51.368;12.364;2023-09-18T09:45:42;23.60;99.90
15259;DHT22;34462;51.368;12.364;2023-09-18T09:48:14;23.80;99.90
15259;DHT22;34462;51.368;12.364;2023-09-18T09:50:46;23.90;99.90
15259;DHT22;34462;51.368;12.364;2023-09-18T09:53:16;24.20;99.90
15259;DHT22;34462;51.368;12.364;2023-09-18T09:55:54;24.40;99.90
15259;DHT22;34462;51.368;12.364;2023-09-18T09:58:27;24.70;99.90
15259;DHT22;34462;51.368;12.364;2023-09-18T10:01:03;24.90;99.90
15259;DHT22;34462;51.368;12.364;2023-09-18T10:03:38;25.00;99.90
15259;DHT22;34462;51.368;12.364;2023-09-18T10:06:09;25.00;99.90
15259;DHT22;34462;51.368;12.364;2023-09-18T10:08:40;24.90;99.90
15259;DHT22;34462;51.368;12.364;2023-09-18T10:11:13;24.70;99.90
15259;DHT22;34462;51.368;12.364;2023-09-18T10:13:50;24.60;99.90
15259;DHT22;34462;51.368;12.364;2023-09-18T10:16:23;24.40;99.90
15259;DHT22;34462;51.368;12.364;2023-09-18T10:19:02;24.30;99.90
15259;DHT22;34462;51.368;12.364;2023-09-18T10:21:43;24.20;99.90
15259;DHT22;34462;51.368;12.364;2023-09-18T10:24:24;24.00;99.90
15259;DHT22;34462;51.368;12.364;2023-09-18T10:26:55;23.90;99.90
15259;DHT22;34462;51.368;12.364;2023-09-18T10:29:26;23.90;99.90
15259;DHT22;34462;51.368;12.364;2023-09-18T10:31:57;24.00;99.90
15259;DHT22;34462;51.368;12.364;2023-09-18T10:34:27;24.00;99.90
15259;DHT22;34462;51.368;12.364;2023-09-18T10:36:57;24.10;99.90
15259;DHT22;34462;51.368;12.364;2023-09-18T10:39:29;24.20;99.90
15259;DHT22;34462;51.368;12.364;2023-09-18T10:42:03;24.40;99.90
15259;DHT22;34462;51.368;12.364;2023-09-18T10:44:34;24.70;99.90
15259;DHT22;34462;51.368;12.364;2023-09-18T10:47:04;25.20;99.90
15259;DHT22;34462;51.368;12.364;2023-09-18T10:49:34;25.60;99.90
15259;DHT22;34462;51.368;12.364;2023-09-18T10:52:03;26.00;99.90
15259;DHT22;34462;51.368;12.364;2023-09-18T10:54:32;26.40;99.90
15259;DHT22;34462;51.368;12.364;2023-09-18T10:57:06;26.60;99.90
15259;DHT22;34462;51.368;12.364;2023-09-18T10:59:39;26.70;99.90
15259;DHT22;34462;51.368;12.364;2023-09-18T11:02:14;26.80;99.90
15259;DHT22;34462;51.368;12.364;2023-09-18T11:04:44;26.70;99.90
15259;DHT22;34462;51.368;12.364;2023-09-18T11:07:20;26.60;99.90
15259;DHT22;34462;51.368;12.364;2023-09-18T11:09:48;26.30;99.90
15259;DHT22;34462;51.368;12.364;2023-09-18T11:12:18;26.10;99.90
15259;DHT22;34462;51.368;12.364;2023-09-18T11:14:48;25.80;99.90
15259;DHT22;34462;51.368;12.364;2023-09-18T11:17:30;25.70;99.90
15259;DHT22;34462;51.368;12.364;2023-09-18T11:20:16;25.50;99.90
15259;DHT22;34462;51.368;12.364;2023-09-18T11:22:49;25.30;99.90
15259;DHT22;34462;51.368;12.364;2023-09-18T11:25:36;25.20;99.90
15259;DHT22;34462;51.368;12.364;2023-09-18T11:28:07;25.20;99.90
15259;DHT22;34462;51.368;12.364;2023-09-18T11:30:49;25.30;99.90
15259;DHT22;34462;51.368;12.364;2023-09-18T11:33:36;25.20;99.90
15259;DHT22;34462;51.368;12.364;2023-09-18T11:36:07;25.30;99.90
15259;DHT22;34462;51.368;12.364;2023-09-18T11:38:52;25.20;99.90
15259;DHT22;34462;51.368;12.364;2023-09-18T11:41:25;25.30;99.90
15259;DHT22;34462;51.368;12.364;2023-09-18T11:47:14;25.50;99.90
15259;DHT22;34462;51.368;12.364;2023-09-18T11:49:50;25.80;99.90
15259;DHT22;34462;51.368;12.364;2023-09-18T11:52:23;26.00;99.90
15259;DHT22;34462;51.368;12.364;2023-09-18T11:54:53;26.00;99.90
15259;DHT22;34462;51.368;12.364;2023-09-18T11:57:23;25.80;99.90
15259;DHT22;34462;51.368;12.364;2023-09-18T11:59:53;25.50;99.90
15259;DHT22;34462;51.368;12.364;2023-09-18T12:02:25;25.30;99.90
15259;DHT22;34462;51.368;12.364;2023-09-18T12:05:05;25.00;99.90
15259;DHT22;34462;51.368;12.364;2023-09-18T12:07:37;24.60;99.90
15259;DHT22;34462;51.368;12.364;2023-09-18T12:10:09;24.50;99.90
15259;DHT22;34462;51.368;12.364;2023-09-18T12:12:38;24.30;99.90
15259;DHT22;34462;51.368;12.364;2023-09-18T12:15:11;24.20;99.90
15259;DHT22;34462;51.368;12.364;2023-09-18T12:17:39;24.10;99.90
15259;DHT22;34462;51.368;12.364;2023-09-18T12:20:15;24.10;99.90
15259;DHT22;34462;51.368;12.364;2023-09-18T12:22:47;24.10;99.90
15259;DHT22;34462;51.368;12.364;2023-09-18T12:25:17;24.10;99.90
15259;DHT22;34462;51.368;12.364;2023-09-18T12:27:46;24.10;99.90
15259;DHT22;34462;51.368;12.364;2023-09-18T12:30:21;24.00;99.90
15259;DHT22;34462;51.368;12.364;2023-09-18T12:32:51;23.90;99.90
15259;DHT22;34462;51.368;12.364;2023-09-18T12:35:20;23.90;99.90
15259;DHT22;34462;51.368;12.364;2023-09-18T12:37:50;23.70;99.90
15259;DHT22;34462;51.368;12.364;2023-09-18T12:40:25;23.60;99.90
15259;DHT22;34462;51.368;12.364;2023-09-18T12:42:56;23.50;99.90
15259;DHT22;34462;51.368;12.364;2023-09-18T12:45:28;23.40;99.90
15259;DHT22;34462;51.368;12.364;2023-09-18T12:47:58;23.40;99.90
15259;DHT22;34462;51.368;12.364;2023-09-18T12:50:27;23.40;99.90
15259;DHT22;34462;51.368;12.364;2023-09-18T12:53:06;23.60;99.90
15259;DHT22;34462;51.368;12.364;2023-09-18T12:55:39;23.50;99.90
15259;DHT22;34462;51.368;12.364;2023-09-18T12:58:10;23.60;99.90
15259;DHT22;34462;51.368;12.364;2023-09-18T13:00:47;23.60;99.90
15259;DHT22;34462;51.368;12.364;2023-09-18T13:03:18;23.50;99.90
15259;DHT22;34462;51.368;12.364;2023-09-18T13:05:47;23.50;99.90
15259;DHT22;34462;51.368;12.364;2023-09-18T13:08:21;23.40;99.90
15259;DHT22;34462;51.368;12.364;2023-09-18T13:10:50;23.30;99.90
15259;DHT22;34462;51.368;12.364;2023-09-18T13:13:20;23.30;99.90
15259;DHT22;34462;51.368;12.364;2023-09-18T13:15:51;23.30;99.90
15259;DHT22;34462;51.368;12.364;2023-09-18T13:18:22;23.40;99.90
15259;DHT22;34462;51.368;12.364;2023-09-18T13:20:52;23.30;99.90
15259;DHT22;34462;51.368;12.364;2023-09-18T13:23:21;23.30;99.90
15259;DHT22;34462;51.368;12.364;2023-09-18T13:26:00;23.30;99.90
15259;DHT22;34462;51.368;12.364;2023-09-18T13:28:29;23.30;99.90
15259;DHT22;34462;51.368;12.364;2023-09-18T13:31:02;23.20;99.90
15259;DHT22;34462;51.368;12.364;2023-09-18T13:33:33;23.10;99.90
15259;DHT22;34462;51.368;12.364;2023-09-18T13:36:06;23.00;99.90
15259;DHT22;34462;51.368;12.364;2023-09-18T13:38:35;23.00;99.90
15259;DHT22;34462;51.368;12.364;2023-09-18T13:41:03;23.00;99.90
15259;DHT22;34462;51.368;12.364;2023-09-18T13:43:31;22.90;99.90
15259;DHT22;34462;51.368;12.364;2023-09-18T13:46:03;22.90;99.90
15259;DHT22;34462;51.368;12.364;2023-09-18T13:48:32;23.00;99.90
15259;DHT22;34462;51.368;12.364;2023-09-18T13:51:01;23.10;99.90
15259;DHT22;34462;51.368;12.364;2023-09-18T13:53:30;23.10;99.90
15259;DHT22;34462;51.368;12.364;2023-09-18T13:55:58;23.20;99.90
15259;DHT22;34462;51.368;12.364;2023-09-18T13:58:26;23.10;99.90
15259;DHT22;34462;51.368;12.364;2023-09-18T14:00:55;23.10;99.90
15259;DHT22;34462;51.368;12.364;2023-09-18T14:03:25;23.10;99.90
15259;DHT22;34462;51.368;12.364;2023-09-18T14:05:53;23.10;99.90
15259;DHT22;34462;51.368;12.364;2023-09-18T14:08:21;23.10;99.90
15259;DHT22;34462;51.368;12.364;2023-09-18T14:10:49;23.10;99.90
15259;DHT22;34462;51.368;12.364;2023-09-18T14:13:18;23.00;99.90
15259;DHT22;34462;51.368;12.364;2023-09-18T14:15:46;22.90;99.90
15259;DHT22;34462;51.368;12.364;2023-09-18T14:18:18;22.80;99.90
15259;DHT22;34462;51.368;12.364;2023-09-18T14:20:48;22.60;99.90
15259;DHT22;34462;51.368;12.364;2023-09-18T14:23:16;22.40;99.90
15259;DHT22;34462;51.368;12.364;2023-09-18T14:25:44;22.20;99.90
15259;DHT22;34462;51.368;12.364;2023-09-18T14:28:12;22.00;99.90
15259;DHT22;34462;51.368;12.364;2023-09-18T14:30:41;21.90;99.90
15259;DHT22;34462;51.368;12.364;2023-09-18T14:33:09;21.80;99.90
15259;DHT22;34462;51.368;12.364;2023-09-18T14:35:37;21.80;99.90
15259;DHT22;34462;51.368;12.364;2023-09-18T14:38:07;21.70;99.90
15259;DHT22;34462;51.368;12.364;2023-09-18T14:40:35;21.80;99.90
15259;DHT22;34462;51.368;12.364;2023-09-18T14:43:03;21.80;99.90
15259;DHT22;34462;51.368;12.364;2023-09-18T14:45:34;21.80;99.90
15259;DHT22;34462;51.368;12.364;2023-09-18T14:48:02;21.60;99.90
15259;DHT22;34462;51.368;12.364;2023-09-18T14:50:31;21.60;99.90
15259;DHT22;34462;51.368;12.364;2023-09-18T14:52:59;21.50;99.90
15259;DHT22;34462;51.368;12.364;2023-09-18T14:55:29;21.40;99.90
15259;DHT22;34462;51.368;12.364;2023-09-18T14:57:57;21.30;99.90
15259;DHT22;34462;51.368;12.364;2023-09-18T15:00:26;21.20;99.90
15259;DHT22;34462;51.368;12.364;2023-09-18T15:02:56;21.10;99.90
15259;DHT22;34462;51.368;12.364;2023-09-18T15:05:26;21.00;99.90
15259;DHT22;34462;51.368;12.364;2023-09-18T15:07:55;21.00;99.90
15259;DHT22;34462;51.368;12.364;2023-09-18T15:10:23;21.00;99.90
15259;DHT22;34462;51.368;12.364;2023-09-18T15:12:52;21.00;99.90
15259;DHT22;34462;51.368;12.364;2023-09-18T15:15:21;21.00;99.90
15259;DHT22;34462;51.368;12.364;2023-09-18T15:17:49;21.00;99.90
15259;DHT22;34462;51.368;12.364;2023-09-18T15:20:19;21.00;99.90
15259;DHT22;34462;51.368;12.364;2023-09-18T15:22:50;21.00;99.90
15259;DHT22;34462;51.368;12.364;2023-09-18T15:25:18;21.00;99.90
15259;DHT22;34462;51.368;12.364;2023-09-18T15:27:47;21.00;99.90
15259;DHT22;34462;51.368;12.364;2023-09-18T15:30:17;21.00;99.90
15259;DHT22;34462;51.368;12.364;2023-09-18T15:32:47;21.00;99.90
15259;DHT22;34462;51.368;12.364;2023-09-18T15:35:17;20.90;99.90
15259;DHT22;34462;51.368;12.364;2023-09-18T15:37:45;20.90;99.90